Time;durP1;ratioP1;P1;durP2;ratioP2;P2;SDS_P1;SDS_P2;PMS_P1;PMS_P2;Temp;Humidity;BMP_temperature;BMP_pressure;BME280_temperature;BME280_humidity;BME280_pressure;Samples;Min_cycle;Max_cycle;Signal;HPM_P1;HPM_P2
2024/03/30 00:02:28;;;;;;;3.35;2.38;;;8.50;99.90;;;;;;4988252;28;20026;-84
2024/03/30 00:04:54;;;;;;;0.77;0.77;;;8.40;99.90;;;;;;4983370;28;20489;-84
2024/03/30 00:07:21;;;;;;;0.88;0.82;;;8.40;99.90;;;;;;4971563;28;20035;-84
2024/03/30 00:09:48;;;;;;;1.27;1.23;;;8.40;99.90;;;;;;4989788;28;20054;-84
2024/03/30 00:12:14;;;;;;;1.33;1.23;;;8.30;99.90;;;;;;4973166;28;20034;-84
2024/03/30 00:14:41;;;;;;;2.63;1.75;;;8.40;99.90;;;;;;4989406;28;20486;-84
2024/03/30 00:17:08;;;;;;;1.05;0.95;;;8.30;99.90;;;;;;4991532;28;20026;-84
2024/03/30 00:19:38;;;;;;;0.60;0.60;;;8.30;99.90;;;;;;4991639;28;20041;-84
2024/03/30 00:22:05;;;;;;;1.73;1.58;;;8.30;99.90;;;;;;4980109;28;20027;-84
2024/03/30 00:24:32;;;;;;;2.53;2.17;;;8.30;99.90;;;;;;4989792;28;20042;-84
2024/03/30 00:26:58;;;;;;;1.45;1.35;;;8.30;99.90;;;;;;4994431;28;20035;-84
2024/03/30 00:29:24;;;;;;;2.03;1.42;;;8.30;99.90;;;;;;4987746;28;20038;-83
2024/03/30 00:31:50;;;;;;;2.00;1.80;;;8.20;99.90;;;;;;4991407;28;20029;-83
2024/03/30 00:34:16;;;;;;;3.40;2.25;;;8.20;99.90;;;;;;4990438;28;20030;-83
2024/03/30 00:36:43;;;;;;;1.88;1.77;;;8.20;99.90;;;;;;4977068;28;20041;-83
2024/03/30 00:39:11;;;;;;;2.50;1.80;;;8.20;99.90;;;;;;4993152;28;20042;-84
2024/03/30 00:41:39;;;;;;;3.03;2.17;;;8.10;99.90;;;;;;4973671;28;20037;-83
2024/03/30 00:44:05;;;;;;;2.25;2.08;;;8.20;99.90;;;;;;4981792;28;20041;-83
2024/03/30 00:46:32;;;;;;;1.77;1.67;;;8.20;99.90;;;;;;4988203;28;20439;-83
2024/03/30 00:48:59;;;;;;;0.82;0.75;;;8.10;99.90;;;;;;4971958;28;20041;-83
2024/03/30 00:51:25;;;;;;;1.60;1.48;;;8.10;99.90;;;;;;4990418;28;20022;-83
2024/03/30 00:53:51;;;;;;;1.35;1.17;;;8.00;99.90;;;;;;4992449;28;20489;-83
2024/03/30 00:56:17;;;;;;;3.80;1.48;;;8.00;99.90;;;;;;4992323;28;20026;-83
2024/03/30 00:58:44;;;;;;;1.75;1.65;;;8.00;99.90;;;;;;4988451;28;20030;-83
2024/03/30 01:01:10;;;;;;;1.35;1.25;;;7.90;99.90;;;;;;4991841;28;20030;-85
2024/03/30 01:03:37;;;;;;;1.70;1.60;;;7.90;99.90;;;;;;4990848;28;20045;-83
2024/03/30 01:06:03;;;;;;;2.65;2.40;;;7.80;99.90;;;;;;4993019;28;20026;-83
2024/03/30 01:08:29;;;;;;;3.90;2.40;;;7.80;99.90;;;;;;4973621;28;20046;-83
2024/03/30 01:10:59;;;;;;;1.40;1.30;;;7.80;99.90;;;;;;4991809;28;20378;-83
2024/03/30 01:13:26;;;;;;;1.05;0.77;;;7.80;99.90;;;;;;4990666;28;20131;-83
2024/03/30 01:15:53;;;;;;;1.52;1.42;;;7.70;99.90;;;;;;4990714;28;20037;-83
2024/03/30 01:18:20;;;;;;;2.40;1.88;;;7.70;99.90;;;;;;4976548;28;20165;-83
2024/03/30 01:20:50;;;;;;;1.17;1.08;;;7.60;99.90;;;;;;4990991;28;20471;-83
2024/03/30 01:23:19;;;;;;;2.25;1.67;;;7.60;99.90;;;;;;4987872;28;20034;-83
2024/03/30 01:25:45;;;;;;;2.33;1.88;;;7.60;99.90;;;;;;4988867;28;20403;-82
2024/03/30 01:28:12;;;;;;;1.40;1.30;;;7.50;99.90;;;;;;4987332;28;20358;-85
2024/03/30 01:30:38;;;;;;;1.63;1.45;;;7.50;99.90;;;;;;4990371;28;20431;-82
2024/03/30 01:33:05;;;;;;;1.35;1.25;;;7.50;99.90;;;;;;4992689;28;20038;-83
2024/03/30 01:35:31;;;;;;;0.75;0.75;;;7.50;99.90;;;;;;4992844;28;20451;-83
2024/03/30 01:37:57;;;;;;;1.85;1.75;;;7.50;99.90;;;;;;4995359;28;20367;-82
2024/03/30 01:40:23;;;;;;;0.75;0.65;;;7.40;99.90;;;;;;4984424;28;20026;-82
2024/03/30 01:42:50;;;;;;;2.17;1.98;;;7.40;99.90;;;;;;5010127;28;20038;-83
2024/03/30 01:45:16;;;;;;;1.48;1.38;;;7.40;99.90;;;;;;4992356;28;20049;-83
2024/03/30 01:47:42;;;;;;;1.20;0.98;;;7.30;99.90;;;;;;4999439;28;20067;-82
2024/03/30 01:50:09;;;;;;;3.17;1.75;;;7.30;99.90;;;;;;4994105;28;20042;-81
2024/03/30 01:52:36;;;;;;;1.92;1.83;;;7.30;99.90;;;;;;4997888;28;20038;-82
2024/03/30 01:55:04;;;;;;;6.63;2.75;;;7.30;99.90;;;;;;4980083;28;20048;-83
2024/03/30 01:57:32;;;;;;;2.60;2.40;;;7.20;99.90;;;;;;4978623;28;20408;-81
2024/03/30 01:59:58;;;;;;;1.58;1.27;;;7.20;99.90;;;;;;4992756;28;20095;-81
2024/03/30 02:02:26;;;;;;;3.03;2.35;;;7.30;99.90;;;;;;4989201;28;20030;-82
2024/03/30 02:04:55;;;;;;;1.98;1.20;;;7.20;99.90;;;;;;4997952;28;20042;-80
2024/03/30 02:07:21;;;;;;;1.38;1.27;;;7.20;99.90;;;;;;4991536;28;20031;-81
2024/03/30 02:09:47;;;;;;;2.13;1.65;;;7.20;99.90;;;;;;4978486;28;20038;-81
2024/03/30 02:12:14;;;;;;;1.95;1.85;;;7.20;99.90;;;;;;4989415;28;20027;-84
2024/03/30 02:14:41;;;;;;;1.13;1.13;;;7.20;99.90;;;;;;4987990;28;20066;-82
2024/03/30 02:17:07;;;;;;;2.55;1.55;;;7.20;99.90;;;;;;4988359;28;20455;-81
2024/03/30 02:19:45;;;;;;;0.85;0.85;;;7.20;99.90;;;;;;4986605;28;20037;-82
2024/03/30 02:22:16;;;;;;;2.10;1.92;;;7.20;99.90;;;;;;4993595;28;20034;-81
2024/03/30 02:24:42;;;;;;;1.40;1.20;;;7.20;99.90;;;;;;4976727;28;20045;-81
2024/03/30 02:27:08;;;;;;;1.05;0.98;;;7.10;99.90;;;;;;4986452;28;20045;-81
2024/03/30 02:29:37;;;;;;;1.52;1.42;;;7.10;99.90;;;;;;4985168;28;20041;-82
2024/03/30 02:32:04;;;;;;;1.95;1.85;;;7.00;99.90;;;;;;4989617;28;20034;-81
2024/03/30 02:34:30;;;;;;;2.72;2.53;;;7.00;99.90;;;;;;4987799;28;20038;-81
2024/03/30 02:36:56;;;;;;;2.08;1.88;;;6.90;99.90;;;;;;4975400;28;20038;-81
2024/03/30 02:39:23;;;;;;;2.92;2.30;;;6.90;99.90;;;;;;4991075;28;20326;-81
2024/03/30 02:41:49;;;;;;;2.45;2.25;;;6.90;99.90;;;;;;4990918;28;20026;-81
2024/03/30 02:44:15;;;;;;;7.00;2.90;;;6.90;99.90;;;;;;4975384;28;20041;-83
2024/03/30 02:46:42;;;;;;;1.85;1.75;;;6.70;99.90;;;;;;4979664;28;20061;-81
2024/03/30 02:49:08;;;;;;;1.25;1.02;;;6.70;99.90;;;;;;4984806;28;20502;-81
2024/03/30 02:51:34;;;;;;;2.10;1.90;;;6.70;99.90;;;;;;4990933;28;20041;-80
2024/03/30 02:54:00;;;;;;;2.80;2.35;;;6.70;99.90;;;;;;4989126;28;20053;-81
2024/03/30 02:56:26;;;;;;;0.70;0.70;;;6.70;99.90;;;;;;4973420;28;20038;-81
2024/03/30 02:58:55;;;;;;;2.17;2.05;;;6.70;99.90;;;;;;4972968;28;20034;-80
2024/03/30 03:01:21;;;;;;;1.05;1.05;;;6.60;99.90;;;;;;4987190;28;20030;-81
2024/03/30 03:03:47;;;;;;;1.80;1.02;;;6.60;99.90;;;;;;4987433;28;20034;-80
2024/03/30 03:06:13;;;;;;;2.28;2.17;;;6.70;99.90;;;;;;4987316;28;20049;-80
2024/03/30 03:08:39;;;;;;;0.95;0.95;;;6.70;99.90;;;;;;4972466;28;20062;-81
2024/03/30 03:11:05;;;;;;;1.02;0.88;;;6.70;99.90;;;;;;4974961;28;20451;-81
2024/03/30 03:13:31;;;;;;;3.83;2.15;;;6.70;99.90;;;;;;4968166;28;20065;-81
2024/03/30 03:16:05;;;;;;;0.85;0.85;;;6.60;99.90;;;;;;4986674;28;20029;-81
2024/03/30 03:18:32;;;;;;;1.40;1.30;;;6.60;99.90;;;;;;4984740;28;20034;-81
2024/03/30 03:20:58;;;;;;;1.48;1.15;;;6.60;99.90;;;;;;4989576;28;20049;-82
2024/03/30 03:23:25;;;;;;;2.58;2.38;;;6.40;99.90;;;;;;4986744;28;20038;-80
2024/03/30 03:25:51;;;;;;;1.48;1.38;;;6.40;99.90;;;;;;4986877;28;20026;-81
2024/03/30 03:28:18;;;;;;;9.27;1.58;;;6.40;99.90;;;;;;4986643;28;20030;-84
2024/03/30 03:30:45;;;;;;;0.68;0.68;;;6.40;99.90;;;;;;4983940;28;20097;-80
2024/03/30 03:33:11;;;;;;;4.07;1.73;;;6.40;99.90;;;;;;4972200;28;20049;-80
2024/03/30 03:35:37;;;;;;;0.88;0.88;;;6.40;99.90;;;;;;4986395;28;20509;-81
2024/03/30 03:38:03;;;;;;;6.00;4.38;;;6.40;99.90;;;;;;4970952;28;20034;-80
2024/03/30 03:40:29;;;;;;;2.83;2.60;;;6.30;99.90;;;;;;4972196;28;20045;-80
2024/03/30 03:42:56;;;;;;;1.63;1.52;;;6.30;99.90;;;;;;4991580;28;20057;-81
2024/03/30 03:45:22;;;;;;;1.50;1.00;;;6.30;99.90;;;;;;4987718;28;20049;-80
2024/03/30 03:47:49;;;;;;;2.42;2.22;;;6.30;99.90;;;;;;4987323;28;20042;-80
2024/03/30 03:50:15;;;;;;;1.88;1.77;;;6.30;99.90;;;;;;4988537;28;20069;-80
2024/03/30 03:52:42;;;;;;;1.05;1.05;;;6.20;99.90;;;;;;4988037;28;20060;-80
2024/03/30 03:55:08;;;;;;;3.03;2.45;;;6.20;99.90;;;;;;4991247;28;20022;-80
2024/03/30 03:57:34;;;;;;;1.60;1.50;;;6.20;99.90;;;;;;4986472;28;20039;-80
2024/03/30 04:00:00;;;;;;;1.35;1.25;;;6.30;99.90;;;;;;4987979;28;20034;-80
2024/03/30 04:02:27;;;;;;;1.58;1.48;;;6.30;99.90;;;;;;4989410;28;20026;-80
2024/03/30 04:04:53;;;;;;;1.17;1.17;;;6.30;99.90;;;;;;4985747;28;20037;-80
2024/03/30 04:07:20;;;;;;;1.42;0.90;;;6.20;99.90;;;;;;4992402;28;20022;-83
2024/03/30 04:09:50;;;;;;;2.83;2.63;;;6.10;99.90;;;;;;4975157;28;20031;-79
2024/03/30 04:12:16;;;;;;;1.70;1.20;;;6.10;99.90;;;;;;4991959;28;20041;-79
2024/03/30 04:14:42;;;;;;;1.67;1.58;;;6.00;99.90;;;;;;4994486;28;20057;-79
2024/03/30 04:17:08;;;;;;;1.35;1.30;;;6.00;99.90;;;;;;4988132;28;20030;-80
2024/03/30 04:19:35;;;;;;;0.88;0.88;;;6.00;99.90;;;;;;4983684;28;20049;-80
2024/03/30 04:22:02;;;;;;;1.23;1.13;;;6.00;99.90;;;;;;4986642;28;20027;-79
2024/03/30 04:24:28;;;;;;;1.23;1.23;;;6.00;99.90;;;;;;4990337;28;20030;-79
2024/03/30 04:26:54;;;;;;;2.42;2.22;;;6.00;99.90;;;;;;4973105;28;20414;-80
2024/03/30 04:29:21;;;;;;;1.35;1.30;;;5.90;99.90;;;;;;4982564;28;20717;-85
2024/03/30 04:31:47;;;;;;;4.90;1.40;;;5.80;99.90;;;;;;4987532;28;20026;-80
2024/03/30 04:34:13;;;;;;;5.07;2.88;;;5.80;99.90;;;;;;4960053;28;20030;-80
2024/03/30 04:36:39;;;;;;;0.65;0.65;;;5.80;99.90;;;;;;4986253;28;20755;-81
2024/03/30 04:39:05;;;;;;;0.50;0.50;;;5.70;99.90;;;;;;4983889;28;20375;-80
2024/03/30 04:41:31;;;;;;;1.73;1.63;;;5.60;99.90;;;;;;4990017;28;20026;-81
2024/03/30 04:43:57;;;;;;;1.48;1.38;;;5.70;99.90;;;;;;4970774;28;20038;-80
2024/03/30 04:46:24;;;;;;;1.48;0.88;;;5.70;99.90;;;;;;4971151;28;20031;-81
2024/03/30 04:48:50;;;;;;;1.23;1.13;;;5.70;99.90;;;;;;4986591;28;20026;-80
2024/03/30 04:51:16;;;;;;;1.10;1.05;;;5.50;99.90;;;;;;4987352;28;20045;-79
2024/03/30 04:53:42;;;;;;;1.20;1.10;;;5.60;99.90;;;;;;4990164;28;20022;-79
2024/03/30 04:56:09;;;;;;;1.10;1.08;;;5.50;99.90;;;;;;4991947;28;20026;-78
2024/03/30 04:58:35;;;;;;;0.98;0.95;;;5.50;99.90;;;;;;4988257;28;20030;-79
2024/03/30 05:01:05;;;;;;;1.65;1.45;;;5.50;99.90;;;;;;4991570;28;20034;-79
2024/03/30 05:03:32;;;;;;;1.38;1.33;;;5.50;99.90;;;;;;4990757;28;20034;-80
2024/03/30 05:06:01;;;;;;;1.05;0.90;;;5.50;99.90;;;;;;4994044;28;20366;-81
2024/03/30 05:08:28;;;;;;;3.72;2.47;;;5.50;99.90;;;;;;4990464;28;20085;-81
2024/03/30 05:10:54;;;;;;;1.95;1.33;;;5.50;99.90;;;;;;4992720;28;20041;-81
2024/03/30 05:13:21;;;;;;;0.95;0.95;;;5.40;99.90;;;;;;4991100;28;20030;-84
2024/03/30 05:15:48;;;;;;;2.40;1.40;;;5.40;99.90;;;;;;4986932;28;20035;-80
2024/03/30 05:18:16;;;;;;;2.35;2.17;;;5.50;99.90;;;;;;4974203;28;20049;-79
2024/03/30 05:20:49;;;;;;;1.15;1.00;;;5.50;99.90;;;;;;4988381;28;20031;-80
2024/03/30 05:23:23;;;;;;;1.08;1.08;;;5.50;99.90;;;;;;4993403;28;20026;-79
2024/03/30 05:25:50;;;;;;;1.48;1.45;;;5.50;99.90;;;;;;4993730;28;20030;-79
2024/03/30 05:28:19;;;;;;;5.68;2.60;;;5.60;99.90;;;;;;4989513;28;20022;-80
2024/03/30 05:30:52;;;;;;;1.63;1.10;;;5.50;99.90;;;;;;4990756;28;20039;-79
2024/03/30 05:33:20;;;;;;;2.03;1.77;;;5.50;99.90;;;;;;4988869;28;20038;-79
2024/03/30 05:35:47;;;;;;;1.52;1.42;;;5.50;99.90;;;;;;4992568;28;20037;-80
2024/03/30 05:38:14;;;;;;;0.70;0.70;;;5.50;99.90;;;;;;4992547;28;20439;-80
2024/03/30 05:40:42;;;;;;;1.70;1.58;;;5.60;99.90;;;;;;4991377;28;20588;-80
2024/03/30 05:43:08;;;;;;;0.90;0.90;;;5.50;99.90;;;;;;4989352;28;20031;-80
2024/03/30 05:45:36;;;;;;;1.08;1.05;;;5.60;99.90;;;;;;4987216;28;20037;-80
2024/03/30 05:48:02;;;;;;;1.13;1.02;;;5.60;99.90;;;;;;4970297;28;20089;-81
2024/03/30 05:50:29;;;;;;;1.70;1.60;;;5.70;99.90;;;;;;4973744;28;20054;-80
2024/03/30 05:52:55;;;;;;;3.13;2.47;;;5.80;99.90;;;;;;4991136;28;20026;-79
2024/03/30 05:55:22;;;;;;;2.10;1.80;;;5.90;99.90;;;;;;4987942;28;20034;-83
2024/03/30 05:57:49;;;;;;;1.73;1.63;;;5.80;99.90;;;;;;4987295;28;20042;-79
2024/03/30 06:00:15;;;;;;;1.23;1.13;;;5.80;99.90;;;;;;4990288;28;20478;-80
2024/03/30 06:02:45;;;;;;;0.95;0.70;;;5.80;99.90;;;;;;4983972;28;20046;-81
2024/03/30 06:05:12;;;;;;;2.40;2.22;;;5.80;99.90;;;;;;4992133;28;20022;-80
2024/03/30 06:07:39;;;;;;;2.42;2.15;;;5.90;99.90;;;;;;4994347;28;20031;-79
2024/03/30 06:10:07;;;;;;;1.52;1.42;;;5.90;99.90;;;;;;4991159;28;20037;-79
2024/03/30 06:12:33;;;;;;;0.77;0.77;;;6.00;99.90;;;;;;4995322;28;20027;-80
2024/03/30 06:15:00;;;;;;;2.08;1.23;;;5.90;99.90;;;;;;4979177;28;20063;-80
2024/03/30 06:17:26;;;;;;;0.77;0.77;;;6.00;99.90;;;;;;4985332;28;20030;-81
2024/03/30 06:19:52;;;;;;;0.75;0.75;;;6.00;99.90;;;;;;4995884;28;20034;-80
2024/03/30 06:22:18;;;;;;;0.52;0.52;;;6.00;99.90;;;;;;5004622;28;20030;-80
2024/03/30 06:24:44;;;;;;;2.70;1.48;;;6.00;99.90;;;;;;5007652;28;20857;-81
2024/03/30 06:27:11;;;;;;;2.95;1.77;;;6.00;99.90;;;;;;4998851;28;20053;-77
2024/03/30 06:29:38;;;;;;;0.98;0.98;;;6.10;99.90;;;;;;4974016;28;20356;-79
2024/03/30 06:32:05;;;;;;;1.23;1.17;;;6.10;99.90;;;;;;4982747;28;20038;-79
2024/03/30 06:34:32;;;;;;;1.35;1.27;;;6.10;99.90;;;;;;4987173;28;20463;-80
2024/03/30 06:36:59;;;;;;;2.70;1.98;;;6.20;99.90;;;;;;4989922;28;20030;-80
2024/03/30 06:39:25;;;;;;;2.08;1.92;;;6.20;99.90;;;;;;4992118;28;20489;-85
2024/03/30 06:44:36;;;;;;;1.35;1.27;;;6.30;99.90;;;;;;4972219;28;20038;-80
2024/03/30 06:47:02;;;;;;;3.25;2.58;;;6.30;99.90;;;;;;4990158;28;20034;-80
2024/03/30 06:49:28;;;;;;;2.28;1.80;;;6.40;99.90;;;;;;4985606;28;20049;-80
2024/03/30 06:51:54;;;;;;;1.67;1.58;;;6.40;99.90;;;;;;4991810;28;20348;-82
2024/03/30 06:54:20;;;;;;;1.25;1.15;;;6.40;99.90;;;;;;4991866;28;20440;-81
2024/03/30 06:56:46;;;;;;;1.02;1.02;;;6.50;99.90;;;;;;4987451;28;20034;-80
2024/03/30 06:59:13;;;;;;;1.63;1.48;;;6.60;99.90;;;;;;4986676;28;20042;-82
2024/03/30 07:01:39;;;;;;;2.03;1.52;;;6.70;99.90;;;;;;4989906;28;20026;-79
2024/03/30 07:04:05;;;;;;;1.00;0.98;;;6.70;99.90;;;;;;4985906;28;20031;-80
2024/03/30 07:06:31;;;;;;;0.30;0.30;;;6.80;99.90;;;;;;4990093;28;20042;-81
2024/03/30 07:08:58;;;;;;;3.28;1.77;;;6.80;99.90;;;;;;4991016;28;20022;-81
2024/03/30 07:11:24;;;;;;;1.55;1.45;;;6.90;99.90;;;;;;4990913;28;20056;-83
2024/03/30 07:13:51;;;;;;;0.90;0.90;;;6.90;99.90;;;;;;4986526;28;20043;-81
2024/03/30 07:16:17;;;;;;;0.98;0.98;;;6.90;99.90;;;;;;4985132;28;20462;-81
2024/03/30 07:18:45;;;;;;;1.73;1.63;;;7.00;99.90;;;;;;4970856;28;20045;-82
2024/03/30 07:21:11;;;;;;;2.08;1.98;;;7.00;99.90;;;;;;4991085;28;20029;-81
2024/03/30 07:23:38;;;;;;;2.45;1.08;;;7.10;99.90;;;;;;4990918;28;20454;-81
2024/03/30 07:26:05;;;;;;;1.45;1.35;;;7.10;99.90;;;;;;4992926;28;20037;-81
2024/03/30 07:28:32;;;;;;;1.15;1.15;;;7.10;99.90;;;;;;4987527;28;20026;-80
2024/03/30 07:31:06;;;;;;;1.20;1.17;;;7.10;99.90;;;;;;4991920;28;20046;-82
2024/03/30 07:33:33;;;;;;;0.90;0.90;;;7.10;99.90;;;;;;4983918;28;20042;-82
2024/03/30 07:35:59;;;;;;;0.98;0.95;;;7.20;99.90;;;;;;4971361;28;20042;-82
2024/03/30 07:38:31;;;;;;;0.47;0.47;;;7.20;99.90;;;;;;4969445;28;20050;-86
2024/03/30 07:40:58;;;;;;;0.82;0.82;;;7.30;99.90;;;;;;4988443;28;20451;-81
2024/03/30 07:43:25;;;;;;;2.25;1.77;;;7.30;99.90;;;;;;4990076;28;20030;-81
2024/03/30 07:45:52;;;;;;;1.30;1.23;;;7.40;99.90;;;;;;4986329;28;20041;-83
2024/03/30 07:48:19;;;;;;;1.55;1.45;;;7.40;99.90;;;;;;4987253;28;20042;-82
2024/03/30 07:50:46;;;;;;;2.50;1.40;;;7.40;99.90;;;;;;4988518;28;20038;-82
2024/03/30 07:53:12;;;;;;;1.80;1.42;;;7.40;99.90;;;;;;4993864;28;20026;-83
2024/03/30 07:55:39;;;;;;;1.23;1.15;;;7.40;99.90;;;;;;4972345;28;20035;-80
2024/03/30 07:58:05;;;;;;;4.00;1.67;;;7.50;99.90;;;;;;4987179;28;20026;-81
2024/03/30 08:00:31;;;;;;;1.42;1.10;;;7.50;99.90;;;;;;4988600;28;20030;-79
2024/03/30 08:03:01;;;;;;;1.35;1.23;;;7.50;99.90;;;;;;4993161;28;20033;-79
2024/03/30 08:05:29;;;;;;;1.38;1.02;;;7.50;99.90;;;;;;4990928;28;20030;-87
2024/03/30 08:07:55;;;;;;;1.50;1.40;;;7.50;99.90;;;;;;4959819;28;20046;-81
2024/03/30 08:10:23;;;;;;;1.25;1.15;;;7.60;99.90;;;;;;4975403;28;20045;-81
2024/03/30 08:12:50;;;;;;;0.75;0.75;;;7.70;99.90;;;;;;4970055;28;20030;-80
2024/03/30 08:15:16;;;;;;;0.85;0.85;;;7.70;99.90;;;;;;4991495;28;20038;-79
2024/03/30 08:17:43;;;;;;;1.23;1.20;;;7.70;99.90;;;;;;4992078;28;20235;-83
2024/03/30 08:20:10;;;;;;;1.45;1.27;;;7.80;99.90;;;;;;4974892;28;20038;-82
2024/03/30 08:22:37;;;;;;;2.60;1.70;;;7.80;99.90;;;;;;4978325;28;20038;-83
2024/03/30 08:25:04;;;;;;;1.75;1.38;;;7.80;99.90;;;;;;4988550;28;20042;-82
2024/03/30 08:27:32;;;;;;;1.20;1.10;;;7.80;99.90;;;;;;4969084;28;20046;-84
2024/03/30 08:29:59;;;;;;;2.22;1.52;;;7.90;99.90;;;;;;4979836;28;20030;-83
2024/03/30 08:32:25;;;;;;;5.90;2.60;;;7.90;99.90;;;;;;4992748;28;20035;-82
2024/03/30 08:34:52;;;;;;;1.45;1.35;;;7.90;99.90;;;;;;4979057;28;20042;-83
2024/03/30 08:37:18;;;;;;;0.75;0.75;;;8.00;99.90;;;;;;5003672;28;20037;-84
2024/03/30 08:39:44;;;;;;;8.85;2.28;;;8.10;99.90;;;;;;5004798;28;20030;-80
2024/03/30 08:42:10;;;;;;;2.42;1.63;;;8.10;99.90;;;;;;4992675;28;20038;-84
2024/03/30 08:44:36;;;;;;;2.13;1.58;;;8.10;99.90;;;;;;5002072;28;20026;-82
2024/03/30 08:47:03;;;;;;;1.45;1.35;;;8.10;99.90;;;;;;4980051;28;20022;-83
2024/03/30 08:49:29;;;;;;;1.25;0.80;;;8.10;99.90;;;;;;4989280;28;20026;-86
2024/03/30 08:51:55;;;;;;;0.77;0.77;;;8.20;99.90;;;;;;4993760;28;21032;-84
2024/03/30 08:54:21;;;;;;;1.50;1.40;;;8.20;99.90;;;;;;4989132;28;20038;-84
2024/03/30 08:56:47;;;;;;;1.17;1.05;;;8.30;99.90;;;;;;4991800;28;20469;-84
2024/03/30 08:59:14;;;;;;;1.83;1.13;;;8.40;99.90;;;;;;4994224;28;20035;-84
2024/03/30 09:01:40;;;;;;;1.63;1.48;;;8.40;99.90;;;;;;4994543;28;20034;-83
2024/03/30 09:04:06;;;;;;;2.53;2.00;;;8.40;99.90;;;;;;4971668;28;20043;-83
2024/03/30 09:06:32;;;;;;;1.40;1.30;;;8.50;99.90;;;;;;4978364;28;20038;-87
2024/03/30 09:08:58;;;;;;;1.20;1.00;;;8.50;99.90;;;;;;4995292;28;20041;-84
2024/03/30 09:11:24;;;;;;;4.40;1.63;;;8.50;99.90;;;;;;4986604;28;20026;-84
2024/03/30 09:13:51;;;;;;;3.05;1.77;;;8.50;99.90;;;;;;4995039;28;20189;-83
2024/03/30 09:16:17;;;;;;;1.35;1.25;;;8.50;99.90;;;;;;4978747;28;20470;-83
2024/03/30 09:18:43;;;;;;;2.92;2.28;;;8.50;99.90;;;;;;4992597;28;20046;-84
2024/03/30 09:21:09;;;;;;;2.70;2.00;;;8.70;99.90;;;;;;4977556;28;20030;-82
2024/03/30 09:23:35;;;;;;;4.05;2.33;;;8.70;99.90;;;;;;4975747;28;20034;-84
2024/03/30 09:26:02;;;;;;;1.88;1.75;;;8.80;99.90;;;;;;4991610;28;20026;-84
2024/03/30 09:28:28;;;;;;;2.15;1.95;;;8.90;99.90;;;;;;4989540;28;20030;-85
2024/03/30 09:30:54;;;;;;;1.95;1.42;;;9.00;99.90;;;;;;4984853;28;20119;-84
2024/03/30 09:33:20;;;;;;;5.85;2.15;;;9.20;99.90;;;;;;5000477;28;20356;-85
2024/03/30 09:35:47;;;;;;;1.35;1.25;;;9.30;99.90;;;;;;4999755;28;20030;-87
2024/03/30 09:38:13;;;;;;;2.15;1.48;;;9.40;99.90;;;;;;4973666;28;20045;-84
2024/03/30 09:40:47;;;;;;;2.33;2.13;;;9.50;99.90;;;;;;4994088;28;20324;-85
2024/03/30 09:43:15;;;;;;;2.40;1.33;;;9.60;99.90;;;;;;4973627;28;20038;-85
2024/03/30 09:45:42;;;;;;;4.13;3.22;;;9.70;99.90;;;;;;4986928;28;20038;-86
2024/03/30 09:48:12;;;;;;;1.65;1.55;;;9.60;76.20;;;;;;4989670;28;20124;-86
2024/03/30 09:50:39;;;;;;;2.63;2.05;;;9.70;52.70;;;;;;4989261;28;20026;-84
2024/03/30 09:53:08;;;;;;;5.18;2.72;;;9.80;10.10;;;;;;4975341;28;20054;-85
2024/03/30 09:55:35;;;;;;;0.85;0.85;;;10.00;4.10;;;;;;4973753;28;20046;-86
2024/03/30 09:58:02;;;;;;;3.85;2.83;;;10.00;1.00;;;;;;4990722;28;20026;-86
2024/03/30 10:00:28;;;;;;;1.60;1.50;;;10.10;1.00;;;;;;4986119;28;20050;-85
2024/03/30 10:02:55;;;;;;;2.80;1.40;;;10.30;1.00;;;;;;4989308;28;20034;-85
2024/03/30 10:05:21;;;;;;;1.50;1.40;;;10.40;1.00;;;;;;4988918;28;20030;-85
2024/03/30 10:07:50;;;;;;;1.40;1.30;;;10.40;1.00;;;;;;4972522;28;20047;-86
2024/03/30 10:10:17;;;;;;;1.48;1.38;;;10.40;99.90;;;;;;4996914;28;20026;-86
2024/03/30 10:13:19;;;;;;;1.67;1.58;;;10.70;1.00;;;;;;4998423;28;20041;-89
2024/03/30 10:15:49;;;;;;;3.15;2.70;;;11.10;99.90;;;;;;4985277;28;20065;-85
2024/03/30 10:18:16;;;;;;;2.40;0.77;;;11.50;99.90;;;;;;4993281;28;20311;-85
2024/03/30 10:20:42;;;;;;;0.77;0.77;;;11.50;99.90;;;;;;4989206;28;20038;-85
2024/03/30 10:23:09;;;;;;;2.67;0.90;;;11.70;99.90;;;;;;5001803;28;20041;-85
2024/03/30 10:25:36;;;;;;;1.98;1.20;;;11.80;99.90;;;;;;5001644;28;20482;-85
2024/03/30 10:28:06;;;;;;;1.60;0.93;;;11.70;68.70;;;;;;5000389;28;20030;-84
2024/03/30 10:30:32;;;;;;;1.98;1.67;;;11.70;91.90;;;;;;4978703;28;20033;-86
2024/03/30 10:33:23;;;;;;;1.27;1.13;;;11.80;35.80;;;;;;4997753;28;20045;-80
2024/03/30 10:35:53;;;;;;;0.60;0.60;;;11.70;1.00;;;;;;5011851;28;20030;-86
2024/03/30 10:38:19;;;;;;;2.30;2.10;;;11.40;29.50;;;;;;4986047;28;20471;-83
2024/03/30 10:40:47;;;;;;;2.10;1.05;;;11.40;85.90;;;;;;4982830;28;20030;-84
2024/03/30 10:43:14;;;;;;;1.35;1.02;;;11.50;94.60;;;;;;5000560;28;20030;-82
2024/03/30 10:45:42;;;;;;;1.58;1.40;;;11.50;81.70;;;;;;4998995;28;20033;-83
2024/03/30 10:48:11;;;;;;;2.33;1.63;;;11.50;99.90;;;;;;4983274;28;20030;-82
2024/03/30 10:50:37;;;;;;;1.20;1.15;;;11.50;98.50;;;;;;4987296;28;20049;-81
2024/03/30 10:53:07;;;;;;;1.38;1.02;;;11.30;96.20;;;;;;5003886;28;20038;-84
2024/03/30 10:55:37;;;;;;;0.68;0.63;;;11.30;96.50;;;;;;4969416;28;20039;-87
2024/03/30 10:58:04;;;;;;;1.55;0.90;;;11.20;99.90;;;;;;4965870;28;20031;-81
2024/03/30 11:00:35;;;;;;;1.00;0.90;;;11.20;99.90;;;;;;5015258;28;20048;-87
2024/03/30 11:03:04;;;;;;;3.28;1.48;;;11.20;99.90;;;;;;5001754;28;20019;-84
2024/03/30 11:05:32;;;;;;;1.17;0.80;;;11.20;99.90;;;;;;4999720;28;20042;-90
2024/03/30 11:07:58;;;;;;;2.05;1.05;;;11.30;99.90;;;;;;4997172;28;20026;-84
2024/03/30 11:10:25;;;;;;;0.95;0.60;;;11.30;99.90;;;;;;5015936;28;20037;-83
2024/03/30 11:12:52;;;;;;;1.35;1.10;;;11.30;81.60;;;;;;4989043;28;20038;-81
2024/03/30 11:15:22;;;;;;;0.60;0.60;;;11.20;75.30;;;;;;4983243;28;20050;-80
2024/03/30 11:18:02;;;;;;;1.00;1.00;;;11.20;99.90;;;;;;4999252;28;20049;-82
2024/03/30 11:20:38;;;;;;;1.75;1.48;;;11.30;99.90;;;;;;4948034;29;20043;-84
2024/03/30 11:23:25;;;;;;;0.60;0.43;;;11.30;99.90;;;;;;4948783;29;20043;-84
2024/03/30 11:26:03;;;;;;;1.75;1.00;;;11.20;99.90;;;;;;4937915;29;20079;-85
2024/03/30 11:28:50;;;;;;;2.58;1.90;;;11.30;99.90;;;;;;4953479;29;20050;-82
2024/03/30 11:31:52;;;;;;;1.55;0.95;;;11.30;99.90;;;;;;4929937;29;20513;-80
2024/03/30 11:34:55;;;;;;;0.93;0.88;;;11.40;99.90;;;;;;4924720;29;20151;-80
2024/03/30 11:37:33;;;;;;;1.08;0.98;;;11.50;99.90;;;;;;4922546;29;20039;-84
2024/03/30 11:40:21;;;;;;;0.65;0.63;;;11.60;40.30;;;;;;4958171;29;20515;-83
2024/03/30 11:43:09;;;;;;;0.60;0.40;;;11.70;52.30;;;;;;4945970;29;20054;-87
2024/03/30 11:45:38;;;;;;;1.65;1.48;;;11.80;4.50;;;;;;4961416;29;20043;-84
2024/03/30 11:48:04;;;;;;;2.25;2.10;;;12.00;13.60;;;;;;4944107;29;20039;-85
2024/03/30 11:50:32;;;;;;;3.47;2.20;;;12.00;1.00;;;;;;4940339;29;20044;-86
2024/03/30 11:52:58;;;;;;;1.30;1.00;;;12.10;1.00;;;;;;4960310;29;20042;-86
2024/03/30 11:55:35;;;;;;;6.55;1.90;;;12.10;1.00;;;;;;4960490;29;20051;-88
2024/03/30 11:58:02;;;;;;;0.60;0.55;;;12.20;1.00;;;;;;4943451;29;20031;-87
2024/03/30 12:00:31;;;;;;;0.93;0.82;;;12.20;1.00;;;;;;4944532;29;20143;-86
2024/03/30 12:02:59;;;;;;;3.80;0.97;;;12.20;1.00;;;;;;4948186;29;20054;-88
2024/03/30 12:05:32;;;;;;;1.95;1.35;;;12.20;1.00;;;;;;4950346;29;20035;-85
2024/03/30 12:07:59;;;;;;;2.00;1.00;;;12.20;1.00;;;;;;4944970;29;20050;-86
2024/03/30 12:10:28;;;;;;;7.03;0.77;;;12.20;1.00;;;;;;4968212;29;20046;-86
2024/03/30 12:13:07;;;;;;;0.68;0.68;;;12.30;1.00;;;;;;4965865;29;20141;-86
2024/03/30 12:15:33;;;;;;;1.65;1.25;;;12.20;1.00;;;;;;4970657;28;20051;-88
2024/03/30 12:17:59;;;;;;;0.75;0.75;;;12.30;1.00;;;;;;4908329;29;20024;-87
2024/03/30 12:20:28;;;;;;;2.15;1.23;;;12.20;1.00;;;;;;4904903;29;20406;-79
2024/03/30 12:23:02;;;;;;;6.88;2.47;;;12.20;1.00;;;;;;4940355;29;20055;-87
2024/03/30 12:25:32;;;;;;;1.30;1.20;;;12.10;1.00;;;;;;4940052;29;20051;-84
2024/03/30 12:28:02;;;;;;;15.85;3.50;;;12.10;7.20;;;;;;4939981;29;20048;-85
2024/03/30 12:30:38;;;;;;;0.68;0.65;;;12.10;1.00;;;;;;4922938;29;20436;-86
2024/03/30 12:33:04;;;;;;;0.60;0.60;;;12.20;5.10;;;;;;4921694;29;20056;-85
2024/03/30 12:35:31;;;;;;;1.17;0.80;;;12.10;1.00;;;;;;4921727;29;20355;-85
2024/03/30 12:38:06;;;;;;;0.68;0.68;;;12.20;1.30;;;;;;4942304;29;20046;-85
2024/03/30 12:40:35;;;;;;;0.93;0.88;;;12.20;1.00;;;;;;4940199;29;20051;-85
2024/03/30 12:43:07;;;;;;;2.97;1.50;;;12.30;1.00;;;;;;4924077;29;20043;-85
2024/03/30 12:45:41;;;;;;;0.43;0.43;;;12.30;1.00;;;;;;4943498;29;20056;-81
2024/03/30 12:48:08;;;;;;;2.58;1.10;;;12.30;1.00;;;;;;4908507;29;20039;-87
2024/03/30 12:50:34;;;;;;;0.63;0.63;;;12.30;1.00;;;;;;4988294;28;20026;-88
2024/03/30 12:53:01;;;;;;;4.22;2.45;;;12.20;1.00;;;;;;5001931;28;20038;-88
2024/03/30 12:55:28;;;;;;;0.63;0.63;;;12.30;1.00;;;;;;5005073;28;20030;-89
2024/03/30 12:57:59;;;;;;;0.82;0.82;;;12.30;1.00;;;;;;4995644;28;20031;-79
2024/03/30 13:00:25;;;;;;;3.13;1.50;;;12.40;1.00;;;;;;4992958;28;20034;-79
2024/03/30 13:03:11;;;;;;;1.17;0.63;;;12.50;1.00;;;;;;4990743;28;20050;-89